Time;durP1;ratioP1;P1;durP2;ratioP2;P2;SDS_P1;SDS_P2;PMS_P1;PMS_P2;Temp;Humidity;BMP_temperature;BMP_pressure;BME280_temperature;BME280_humidity;BME280_pressure;Samples;Min_cycle;Max_cycle;Signal;HPM_P1;HPM_P2
2022/10/02 00:01:43;;;;;;;;;7.00;4.67;;;;;;;;5054616;28;45307;-74
2022/10/02 00:04:12;;;;;;;;;7.00;3.00;;;;;;;;5046725;28;46444;-75
2022/10/02 00:06:40;;;;;;;;;3.00;3.00;;;;;;;;5057857;28;45285;-75
2022/10/02 00:09:06;;;;;;;;;2.00;2.00;;;;;;;;5058753;28;45277;-74
2022/10/02 00:11:43;;;;;;;;;5.33;2.00;;;;;;;;5047548;28;45239;-75
2022/10/02 00:14:10;;;;;;;;;6.33;4.00;;;;;;;;5053284;28;45711;-74
2022/10/02 00:16:41;;;;;;;;;5.67;3.33;;;;;;;;5079766;27;45415;-75
2022/10/02 00:19:08;;;;;;;;;4.00;3.00;;;;;;;;5056054;28;45188;-75
2022/10/02 00:21:37;;;;;;;;;4.67;3.00;;;;;;;;5058573;28;45452;-74
2022/10/02 00:24:04;;;;;;;;;3.33;3.33;;;;;;;;5059464;28;45321;-75
2022/10/02 00:26:29;;;;;;;;;7.67;4.00;;;;;;;;5056663;28;45490;-75
2022/10/02 00:29:13;;;;;;;;;5.00;4.00;;;;;;;;5064300;28;45406;-74
2022/10/02 00:31:45;;;;;;;;;3.33;3.00;;;;;;;;5057427;28;46424;-75
2022/10/02 00:34:20;;;;;;;;;5.00;4.33;;;;;;;;5058290;28;45494;-75
2022/10/02 00:37:01;;;;;;;;;3.67;3.00;;;;;;;;5056362;28;45447;-74
2022/10/02 00:39:26;;;;;;;;;3.00;3.00;;;;;;;;5054362;28;45443;-75
2022/10/02 00:41:54;;;;;;;;;6.33;3.00;;;;;;;;5050132;28;44741;-75
2022/10/02 00:44:25;;;;;;;;;5.33;3.00;;;;;;;;5053109;28;45648;-75
2022/10/02 00:47:02;;;;;;;;;3.67;3.67;;;;;;;;5048555;28;44873;-74
2022/10/02 00:49:45;;;;;;;;;5.00;4.00;;;;;;;;5052451;28;45217;-74
2022/10/02 00:52:16;;;;;;;;;7.00;4.33;;;;;;;;5053357;28;45339;-75
2022/10/02 00:54:52;;;;;;;;;5.33;3.33;;;;;;;;5053402;28;45366;-75
2022/10/02 00:57:40;;;;;;;;;5.00;3.00;;;;;;;;5056124;28;45315;-75
2022/10/02 01:00:07;;;;;;;;;5.00;4.00;;;;;;;;5050442;28;45308;-75
2022/10/02 01:02:35;;;;;;;;;5.33;2.00;;;;;;;;5059371;28;45242;-75
2022/10/02 01:05:02;;;;;;;;;7.67;4.33;;;;;;;;5068228;28;46914;-75
2022/10/02 01:07:28;;;;;;;;;4.00;3.00;;;;;;;;5053478;28;45257;-75
2022/10/02 01:09:53;;;;;;;;;6.00;4.00;;;;;;;;5059202;28;45299;-75
2022/10/02 01:12:18;;;;;;;;;2.67;2.00;;;;;;;;5053546;28;45513;-74
2022/10/02 01:14:44;;;;;;;;;5.00;3.00;;;;;;;;5058123;28;47934;-75
2022/10/02 01:17:21;;;;;;;;;5.00;5.00;;;;;;;;5051589;28;45567;-75
2022/10/02 01:19:46;;;;;;;;;4.67;3.33;;;;;;;;5053793;28;45450;-75
2022/10/02 01:22:22;;;;;;;;;5.00;4.00;;;;;;;;5086707;27;46271;-75
2022/10/02 01:24:51;;;;;;;;;3.00;3.00;;;;;;;;5053253;28;45541;-75
2022/10/02 01:27:16;;;;;;;;;5.33;3.00;;;;;;;;5056168;28;45553;-78
2022/10/02 01:29:43;;;;;;;;;3.33;3.33;;;;;;;;5056976;28;45319;-76
2022/10/02 01:32:08;;;;;;;;;3.00;3.00;;;;;;;;5057501;28;45316;-75
2022/10/02 01:34:34;;;;;;;;;9.67;3.33;;;;;;;;5058257;28;45410;-77
2022/10/02 01:36:59;;;;;;;;;3.00;3.00;;;;;;;;5058046;28;45388;-76
2022/10/02 01:39:25;;;;;;;;;5.67;3.67;;;;;;;;5051148;28;45445;-76
2022/10/02 01:41:50;;;;;;;;;5.00;2.00;;;;;;;;5045973;28;45322;-75
2022/10/02 01:44:16;;;;;;;;;4.33;2.67;;;;;;;;5052820;28;45445;-76
2022/10/02 01:46:47;;;;;;;;;4.33;3.33;;;;;;;;5046900;28;45169;-77
2022/10/02 01:49:15;;;;;;;;;5.00;4.00;;;;;;;;5053667;28;45309;-77
2022/10/02 01:51:47;;;;;;;;;3.33;3.33;;;;;;;;5049490;28;45236;-76
2022/10/02 01:54:12;;;;;;;;;3.67;3.67;;;;;;;;5057068;28;47290;-77
2022/10/02 01:56:43;;;;;;;;;4.33;4.33;;;;;;;;5057857;28;45308;-77
2022/10/02 01:59:17;;;;;;;;;6.00;3.67;;;;;;;;5054732;28;45745;-77
2022/10/02 02:02:00;;;;;;;;;4.00;4.00;;;;;;;;5045291;28;46140;-76
2022/10/02 02:04:36;;;;;;;;;2.67;2.67;;;;;;;;5052965;28;45410;-76
2022/10/02 02:07:14;;;;;;;;;5.00;3.33;;;;;;;;5056199;28;45183;-76
2022/10/02 02:09:59;;;;;;;;;3.67;3.00;;;;;;;;5057892;28;45442;-76
2022/10/02 02:12:34;;;;;;;;;3.00;3.00;;;;;;;;5090732;27;46377;-76
2022/10/02 02:15:03;;;;;;;;;3.67;3.67;;;;;;;;5054594;28;45246;-76
2022/10/02 02:17:28;;;;;;;;;4.33;2.00;;;;;;;;5048238;28;47255;-76
2022/10/02 02:20:07;;;;;;;;;4.00;3.00;;;;;;;;5057412;28;45346;-76
2022/10/02 02:22:35;;;;;;;;;4.00;4.00;;;;;;;;5050455;28;45248;-76
2022/10/02 02:25:17;;;;;;;;;2.00;2.00;;;;;;;;5057564;28;46666;-76
2022/10/02 02:27:48;;;;;;;;;2.33;2.00;;;;;;;;5055424;28;44742;-76
2022/10/02 02:30:14;;;;;;;;;3.00;3.00;;;;;;;;5051491;28;45355;-76
2022/10/02 02:32:49;;;;;;;;;3.33;2.00;;;;;;;;5080851;27;45596;-76
2022/10/02 02:35:37;;;;;;;;;3.00;3.00;;;;;;;;5058779;28;46619;-76
2022/10/02 02:38:05;;;;;;;;;2.00;2.00;;;;;;;;5052637;27;45468;-77
2022/10/02 02:40:34;;;;;;;;;3.00;1.00;;;;;;;;5054324;28;45221;-77
2022/10/02 02:43:06;;;;;;;;;3.00;3.00;;;;;;;;5055599;28;45485;-77
2022/10/02 02:45:36;;;;;;;;;4.00;1.00;;;;;;;;5057109;28;46472;-77
2022/10/02 02:48:04;;;;;;;;;3.00;2.00;;;;;;;;5056737;28;45323;-76
2022/10/02 02:50:32;;;;;;;;;3.00;2.00;;;;;;;;5046131;28;45173;-77
2022/10/02 02:52:59;;;;;;;;;2.33;2.00;;;;;;;;5050976;28;45308;-76
2022/10/02 02:55:27;;;;;;;;;1.00;1.00;;;;;;;;5048094;28;45490;-76
2022/10/02 02:58:19;;;;;;;;;3.00;3.00;;;;;;;;5056568;28;45463;-76
2022/10/02 03:00:44;;;;;;;;;3.67;3.00;;;;;;;;5047048;28;45302;-77
2022/10/02 03:03:10;;;;;;;;;2.33;2.00;;;;;;;;5051882;28;45280;-77
2022/10/02 03:05:38;;;;;;;;;2.67;1.33;;;;;;;;5057579;28;45360;-77
2022/10/02 03:08:05;;;;;;;;;3.00;2.00;;;;;;;;5052337;28;45284;-77
2022/10/02 03:10:49;;;;;;;;;4.00;3.00;;;;;;;;5073513;28;45307;-76
2022/10/02 03:13:27;;;;;;;;;3.00;3.00;;;;;;;;5056424;28;45544;-76
2022/10/02 03:16:01;;;;;;;;;3.33;2.00;;;;;;;;5051844;28;47231;-76
2022/10/02 03:18:49;;;;;;;;;2.33;2.33;;;;;;;;5060372;28;45471;-76
2022/10/02 03:21:17;;;;;;;;;2.00;2.00;;;;;;;;5043448;28;45161;-76
2022/10/02 03:23:48;;;;;;;;;3.00;1.33;;;;;;;;5057312;28;45277;-76
2022/10/02 03:26:20;;;;;;;;;2.67;2.00;;;;;;;;5054080;28;47348;-76
2022/10/02 03:28:50;;;;;;;;;2.00;2.00;;;;;;;;5058010;28;45419;-76
2022/10/02 03:31:18;;;;;;;;;1.33;1.00;;;;;;;;5052474;28;45195;-76
2022/10/02 03:33:43;;;;;;;;;2.00;2.00;;;;;;;;5058052;28;45255;-76
2022/10/02 03:36:09;;;;;;;;;2.00;1.00;;;;;;;;5068994;28;46963;-76
2022/10/02 03:38:35;;;;;;;;;1.00;1.00;;;;;;;;5057765;28;45313;-76
2022/10/02 03:41:00;;;;;;;;;1.67;1.67;;;;;;;;5056459;28;45236;-76
2022/10/02 03:43:27;;;;;;;;;1.33;1.00;;;;;;;;5059461;28;45366;-75
2022/10/02 03:45:52;;;;;;;;;1.00;1.00;;;;;;;;5054337;28;46319;-76
2022/10/02 03:48:18;;;;;;;;;1.33;1.00;;;;;;;;5059466;28;46033;-75
2022/10/02 03:50:43;;;;;;;;;1.00;1.00;;;;;;;;5059732;28;45383;-75
2022/10/02 03:53:13;;;;;;;;;2.00;2.00;;;;;;;;5059061;28;48208;-75
2022/10/02 03:55:41;;;;;;;;;0.67;0.67;;;;;;;;5057773;28;45592;-75
2022/10/02 03:58:14;;;;;;;;;2.33;1.00;;;;;;;;5053818;28;45387;-75
2022/10/02 04:00:49;;;;;;;;;2.00;0.00;;;;;;;;5047226;28;45435;-75
2022/10/02 04:03:18;;;;;;;;;2.67;1.00;;;;;;;;5054806;28;45200;-75
2022/10/02 04:05:46;;;;;;;;;0.67;0.67;;;;;;;;5055180;28;46364;-75
2022/10/02 04:08:14;;;;;;;;;1.00;0.33;;;;;;;;5053661;28;45464;-75
2022/10/02 04:10:46;;;;;;;;;1.00;1.00;;;;;;;;5057059;28;45462;-76
2022/10/02 04:13:26;;;;;;;;;1.00;1.00;;;;;;;;5056135;28;45238;-75
2022/10/02 04:16:12;;;;;;;;;2.00;0.00;;;;;;;;5059147;28;46259;-75
2022/10/02 04:18:58;;;;;;;;;0.00;0.00;;;;;;;;5057557;28;45493;-75
2022/10/02 04:21:41;;;;;;;;;0.00;0.00;;;;;;;;5059883;28;45318;-75
2022/10/02 04:24:25;;;;;;;;;1.00;1.00;;;;;;;;5055541;28;45479;-75
2022/10/02 04:27:08;;;;;;;;;0.00;0.00;;;;;;;;5049009;28;45468;-75
2022/10/02 04:29:37;;;;;;;;;2.00;0.67;;;;;;;;5055526;28;45352;-75
2022/10/02 04:32:35;;;;;;;;;1.00;0.33;;;;;;;;5059584;28;46822;-75
2022/10/02 04:35:05;;;;;;;;;0.00;0.00;;;;;;;;5021150;28;45356;-75
2022/10/02 04:37:44;;;;;;;;;0.00;0.00;;;;;;;;5053720;28;45248;-75
2022/10/02 04:40:21;;;;;;;;;0.00;0.00;;;;;;;;5060756;28;45299;-75
2022/10/02 04:42:46;;;;;;;;;0.00;0.00;;;;;;;;5056142;28;45386;-75
2022/10/02 04:45:12;;;;;;;;;0.00;0.00;;;;;;;;5050695;28;45336;-76
2022/10/02 04:47:40;;;;;;;;;0.00;0.00;;;;;;;;5055528;28;45571;-77
2022/10/02 04:50:24;;;;;;;;;0.67;0.67;;;;;;;;5050604;28;45331;-76
2022/10/02 04:53:18;;;;;;;;;0.00;0.00;;;;;;;;5083788;27;45235;-76
2022/10/02 04:56:02;;;;;;;;;0.00;0.00;;;;;;;;5044814;28;45299;-76
2022/10/02 04:58:27;;;;;;;;;0.00;0.00;;;;;;;;5050289;28;46219;-75
2022/10/02 05:00:52;;;;;;;;;0.00;0.00;;;;;;;;5051781;28;45370;-75
2022/10/02 05:03:25;;;;;;;;;0.00;0.00;;;;;;;;5049992;28;45216;-75
2022/10/02 05:06:11;;;;;;;;;0.00;0.00;;;;;;;;5054878;28;45409;-72
2022/10/02 05:08:42;;;;;;;;;0.00;0.00;;;;;;;;5054085;28;45453;-73
2022/10/02 05:11:31;;;;;;;;;0.00;0.00;;;;;;;;5057670;28;45384;-76
2022/10/02 05:13:59;;;;;;;;;0.67;0.00;;;;;;;;5057585;28;45267;-74
2022/10/02 05:16:43;;;;;;;;;0.00;0.00;;;;;;;;5058119;28;45274;-74
2022/10/02 05:19:11;;;;;;;;;0.00;0.00;;;;;;;;5055002;28;45311;-74
2022/10/02 05:21:49;;;;;;;;;2.00;0.00;;;;;;;;5047841;28;45499;-74
2022/10/02 05:24:14;;;;;;;;;0.00;0.00;;;;;;;;5074926;28;45363;-74
2022/10/02 05:26:40;;;;;;;;;0.00;0.00;;;;;;;;5059021;28;44816;-74
2022/10/02 05:29:17;;;;;;;;;0.00;0.00;;;;;;;;5056001;28;45395;-74
2022/10/02 05:31:50;;;;;;;;;0.00;0.00;;;;;;;;5057947;28;45445;-75
2022/10/02 05:34:25;;;;;;;;;0.00;0.00;;;;;;;;5055851;28;45419;-72
2022/10/02 05:36:50;;;;;;;;;0.00;0.00;;;;;;;;5055140;28;45401;-74
2022/10/02 05:39:15;;;;;;;;;0.00;0.00;;;;;;;;5055595;28;45346;-74
2022/10/02 05:41:58;;;;;;;;;1.00;0.00;;;;;;;;5048626;28;45575;-75
2022/10/02 05:44:33;;;;;;;;;0.00;0.00;;;;;;;;5053181;28;45311;-74
2022/10/02 05:47:00;;;;;;;;;0.00;0.00;;;;;;;;5051124;28;45470;-74
2022/10/02 05:49:31;;;;;;;;;0.00;0.00;;;;;;;;5055502;28;45375;-74
2022/10/02 05:52:01;;;;;;;;;0.00;0.00;;;;;;;;5053588;28;45278;-74
2022/10/02 05:54:42;;;;;;;;;0.00;0.00;;;;;;;;5056863;28;45399;-75
2022/10/02 05:57:13;;;;;;;;;0.00;0.00;;;;;;;;5056516;28;46392;-75
2022/10/02 05:59:45;;;;;;;;;7.67;6.67;;;;;;;;5058128;28;46553;-74
2022/10/02 06:02:30;;;;;;;;;0.00;0.00;;;;;;;;5055921;28;45592;-73
2022/10/02 06:05:00;;;;;;;;;0.00;0.00;;;;;;;;5052402;28;45526;-74
2022/10/02 06:07:26;;;;;;;;;0.00;0.00;;;;;;;;5047258;28;45448;-73
2022/10/02 06:10:05;;;;;;;;;0.00;0.00;;;;;;;;5043550;28;46105;-74
2022/10/02 06:12:53;;;;;;;;;0.00;0.00;;;;;;;;5044528;28;45366;-73
2022/10/02 06:15:28;;;;;;;;;0.00;0.00;;;;;;;;5030056;28;45366;-73
2022/10/02 06:18:15;;;;;;;;;0.00;0.00;;;;;;;;5058033;28;45426;-73
2022/10/02 06:20:40;;;;;;;;;0.00;0.00;;;;;;;;5081771;27;46712;-74
2022/10/02 06:23:10;;;;;;;;;0.00;0.00;;;;;;;;5054486;28;45316;-73
2022/10/02 06:25:35;;;;;;;;;0.00;0.00;;;;;;;;5057221;28;45427;-74
2022/10/02 06:28:06;;;;;;;;;0.00;0.00;;;;;;;;5057899;28;45744;-73
2022/10/02 06:30:34;;;;;;;;;0.00;0.00;;;;;;;;5058223;28;45302;-73
2022/10/02 06:33:08;;;;;;;;;0.00;0.00;;;;;;;;5057743;28;45399;-73
2022/10/02 06:35:41;;;;;;;;;0.00;0.00;;;;;;;;5057186;28;45627;-73
2022/10/02 06:38:17;;;;;;;;;0.00;0.00;;;;;;;;5057417;28;45062;-73
2022/10/02 06:40:42;;;;;;;;;0.00;0.00;;;;;;;;5057748;28;46357;-74
2022/10/02 06:43:07;;;;;;;;;0.00;0.00;;;;;;;;5057923;28;45355;-73
2022/10/02 06:45:51;;;;;;;;;0.00;0.00;;;;;;;;5056866;28;45356;-73
2022/10/02 06:48:24;;;;;;;;;0.00;0.00;;;;;;;;5059685;28;45687;-73
2022/10/02 06:50:56;;;;;;;;;0.33;0.00;;;;;;;;5061380;28;45279;-73
2022/10/02 06:53:28;;;;;;;;;0.00;0.00;;;;;;;;5061243;28;44707;-73
2022/10/02 06:55:53;;;;;;;;;2.67;0.00;;;;;;;;5060285;28;45264;-73
2022/10/02 06:58:24;;;;;;;;;0.00;0.00;;;;;;;;5061265;28;45450;-73
2022/10/02 07:00:54;;;;;;;;;0.00;0.00;;;;;;;;5060918;28;45373;-73
2022/10/02 07:03:35;;;;;;;;;0.00;0.00;;;;;;;;5061195;28;45529;-73
2022/10/02 07:06:06;;;;;;;;;0.00;0.00;;;;;;;;5058918;28;45418;-72
2022/10/02 07:08:44;;;;;;;;;0.00;0.00;;;;;;;;5059507;28;45308;-73
2022/10/02 07:11:18;;;;;;;;;0.00;0.00;;;;;;;;5061325;28;45628;-73
2022/10/02 07:14:01;;;;;;;;;0.00;0.00;;;;;;;;5060920;28;45392;-73
2022/10/02 07:16:46;;;;;;;;;0.00;0.00;;;;;;;;5061091;28;45497;-73
2022/10/02 07:19:27;;;;;;;;;0.00;0.00;;;;;;;;5060173;28;45692;-72
2022/10/02 07:22:16;;;;;;;;;0.00;0.00;;;;;;;;5059479;28;47691;-73
2022/10/02 07:24:47;;;;;;;;;0.00;0.00;;;;;;;;5053987;28;45506;-74
2022/10/02 07:27:38;;;;;;;;;0.00;0.00;;;;;;;;5060324;28;45272;-75
2022/10/02 07:30:07;;;;;;;;;0.00;0.00;;;;;;;;5054168;28;46496;-75
2022/10/02 07:32:42;;;;;;;;;2.33;1.33;;;;;;;;5083918;27;45374;-71
2022/10/02 07:35:07;;;;;;;;;0.67;0.00;;;;;;;;5059515;28;45733;-72
2022/10/02 07:37:51;;;;;;;;;0.00;0.00;;;;;;;;5055805;28;45461;-71
2022/10/02 07:40:34;;;;;;;;;1.67;0.00;;;;;;;;5059892;28;45272;-72
2022/10/02 07:43:16;;;;;;;;;0.00;0.00;;;;;;;;5060318;28;45566;-72
2022/10/02 07:46:01;;;;;;;;;1.67;0.00;;;;;;;;5058412;28;44785;-71
2022/10/02 07:48:45;;;;;;;;;0.00;0.00;;;;;;;;5072505;27;45391;-71
2022/10/02 07:54:06;;;;;;;;;2.00;0.00;;;;;;;;5059527;28;45869;-70
2022/10/02 07:56:33;;;;;;;;;1.00;1.00;;;;;;;;5059184;28;45292;-71
2022/10/02 07:59:03;;;;;;;;;0.00;0.00;;;;;;;;5067391;28;45235;-71
2022/10/02 08:01:35;;;;;;;;;0.00;0.00;;;;;;;;5053272;28;45477;-71
2022/10/02 08:04:02;;;;;;;;;0.00;0.00;;;;;;;;5057535;28;46140;-70
2022/10/02 08:06:28;;;;;;;;;0.67;0.67;;;;;;;;5056161;28;45317;-72
2022/10/02 08:08:55;;;;;;;;;1.33;0.00;;;;;;;;5059833;28;45261;-70
2022/10/02 08:11:27;;;;;;;;;2.00;1.00;;;;;;;;5060625;28;45450;-71
2022/10/02 08:13:59;;;;;;;;;2.00;1.00;;;;;;;;5056349;28;45416;-70
2022/10/02 08:16:28;;;;;;;;;2.00;0.00;;;;;;;;5051802;28;45243;-71
2022/10/02 08:19:05;;;;;;;;;0.33;0.00;;;;;;;;5057260;28;45234;-71
2022/10/02 08:21:34;;;;;;;;;0.00;0.00;;;;;;;;5051641;28;47124;-70
2022/10/02 08:24:13;;;;;;;;;0.67;0.67;;;;;;;;5062111;28;46483;-70
2022/10/02 08:26:45;;;;;;;;;2.33;0.67;;;;;;;;5051659;28;45330;-72
2022/10/02 08:29:10;;;;;;;;;0.67;0.67;;;;;;;;5058229;28;45339;-71
2022/10/02 08:31:36;;;;;;;;;2.67;1.33;;;;;;;;5053320;28;44976;-71
2022/10/02 08:34:15;;;;;;;;;5.33;1.00;;;;;;;;5059140;28;48008;-71
2022/10/02 08:36:49;;;;;;;;;1.33;0.00;;;;;;;;5048159;28;45496;-71
2022/10/02 08:39:34;;;;;;;;;2.67;0.67;;;;;;;;5065033;28;45513;-71
2022/10/02 08:42:17;;;;;;;;;2.00;1.00;;;;;;;;5057367;28;45636;-71
2022/10/02 08:44:52;;;;;;;;;0.33;0.33;;;;;;;;5054451;28;46246;-70
2022/10/02 08:47:20;;;;;;;;;1.33;0.00;;;;;;;;5053659;28;45758;-73
2022/10/02 08:49:48;;;;;;;;;0.67;0.67;;;;;;;;5051541;28;45307;-70
2022/10/02 08:52:19;;;;;;;;;2.00;2.00;;;;;;;;5047469;28;45249;-71
2022/10/02 08:54:50;;;;;;;;;0.67;0.67;;;;;;;;5051826;28;45370;-70
2022/10/02 08:57:36;;;;;;;;;1.67;0.67;;;;;;;;5052125;28;45595;-70
2022/10/02 09:00:13;;;;;;;;;1.00;1.00;;;;;;;;5020263;28;45386;-72
2022/10/02 09:02:59;;;;;;;;;4.67;2.33;;;;;;;;5085588;27;46798;-69
2022/10/02 09:05:43;;;;;;;;;2.33;0.67;;;;;;;;5051484;28;45411;-70
2022/10/02 09:08:21;;;;;;;;;4.00;1.00;;;;;;;;5051108;28;45383;-70
2022/10/02 09:10:46;;;;;;;;;1.67;1.00;;;;;;;;5085845;27;45517;-70
2022/10/02 09:13:17;;;;;;;;;0.00;0.00;;;;;;;;5069081;28;46040;-71
2022/10/02 09:15:51;;;;;;;;;2.67;2.00;;;;;;;;5057695;28;45283;-70
2022/10/02 09:18:37;;;;;;;;;0.67;0.67;;;;;;;;5057508;28;45270;-70
2022/10/02 09:21:14;;;;;;;;;1.67;0.67;;;;;;;;5040186;28;45251;-70
2022/10/02 09:23:55;;;;;;;;;1.00;1.00;;;;;;;;5052451;28;45506;-70
2022/10/02 09:26:31;;;;;;;;;0.00;0.00;;;;;;;;5057901;28;45775;-71
2022/10/02 09:29:06;;;;;;;;;1.33;1.33;;;;;;;;5058905;28;45430;-70
2022/10/02 09:31:42;;;;;;;;;2.00;0.67;;;;;;;;5057181;28;45367;-71
2022/10/02 09:34:26;;;;;;;;;1.67;1.00;;;;;;;;5056464;28;45470;-70
2022/10/02 09:37:01;;;;;;;;;0.00;0.00;;;;;;;;5058713;28;45380;-71
2022/10/02 09:39:38;;;;;;;;;0.33;0.00;;;;;;;;5056549;28;45403;-70
2022/10/02 09:42:22;;;;;;;;;0.67;0.00;;;;;;;;5057003;28;45534;-71
2022/10/02 09:44:55;;;;;;;;;2.00;1.00;;;;;;;;5058168;28;45225;-70
2022/10/02 09:47:39;;;;;;;;;2.00;1.00;;;;;;;;5057732;28;45251;-71
2022/10/02 09:50:29;;;;;;;;;2.00;1.00;;;;;;;;5053304;28;45236;-71
2022/10/02 09:53:03;;;;;;;;;0.00;0.00;;;;;;;;5065293;28;45408;-71
2022/10/02 09:55:35;;;;;;;;;3.00;0.00;;;;;;;;5051167;28;45295;-71
2022/10/02 09:58:28;;;;;;;;;0.00;0.00;;;;;;;;5051239;28;45407;-71
2022/10/02 10:01:03;;;;;;;;;0.00;0.00;;;;;;;;5056653;28;45252;-71
2022/10/02 10:03:28;;;;;;;;;2.75;0.50;;;;;;;;5056879;28;45386;-71
2022/10/02 10:06:04;;;;;;;;;0.00;0.00;;;;;;;;5058332;28;45456;-71
2022/10/02 10:08:29;;;;;;;;;1.00;1.00;;;;;;;;5056378;28;46314;-71
2022/10/02 10:11:12;;;;;;;;;0.00;0.00;;;;;;;;5074218;28;45323;-71
2022/10/02 10:13:37;;;;;;;;;0.00;0.00;;;;;;;;5050333;28;45586;-71
2022/10/02 10:16:21;;;;;;;;;1.50;0.00;;;;;;;;5050713;28;45432;-71
2022/10/02 10:18:46;;;;;;;;;0.00;0.00;;;;;;;;5054827;28;45446;-71
2022/10/02 10:21:30;;;;;;;;;0.00;0.00;;;;;;;;5055007;28;45285;-71
2022/10/02 10:24:22;;;;;;;;;1.00;0.00;;;;;;;;5058410;28;45482;-71
2022/10/02 10:27:00;;;;;;;;;0.00;0.00;;;;;;;;5054539;28;45579;-71
2022/10/02 10:29:31;;;;;;;;;0.00;0.00;;;;;;;;5050349;28;45704;-71
2022/10/02 10:32:10;;;;;;;;;0.00;0.00;;;;;;;;5057519;28;45205;-72
2022/10/02 10:35:05;;;;;;;;;0.00;0.00;;;;;;;;5052025;28;45485;-71
2022/10/02 10:40:24;;;;;;;;;0.25;0.25;;;;;;;;5055161;28;45343;-71
2022/10/02 10:42:49;;;;;;;;;0.00;0.00;;;;;;;;5055298;28;45462;-71
2022/10/02 10:45:18;;;;;;;;;3.00;1.50;;;;;;;;5054107;28;45241;-71
2022/10/02 10:47:50;;;;;;;;;1.00;1.00;;;;;;;;5069196;28;45995;-71
2022/10/02 10:50:35;;;;;;;;;0.25;0.00;;;;;;;;5056313;28;47342;-76
2022/10/02 10:53:18;;;;;;;;;55.33;43.67;;;;;;;;5051233;28;44852;-74
2022/10/02 10:56:02;;;;;;;;;2.25;2.25;;;;;;;;5056354;28;45453;-74
2022/10/02 10:58:46;;;;;;;;;0.00;0.00;;;;;;;;5058277;28;45280;-75
2022/10/02 11:01:20;;;;;;;;;0.75;0.75;;;;;;;;5051640;28;46749;-72
2022/10/02 11:04:22;;;;;;;;;0.25;0.00;;;;;;;;5057061;28;45275;-72
2022/10/02 11:06:55;;;;;;;;;0.00;0.00;;;;;;;;5026825;28;45392;-71
2022/10/02 11:09:43;;;;;;;;;0.50;0.50;;;;;;;;5046824;28;45670;-72
2022/10/02 11:12:11;;;;;;;;;0.75;0.75;;;;;;;;5054557;28;46388;-72
2022/10/02 11:15:06;;;;;;;;;0.00;0.00;;;;;;;;5057910;28;45354;-73
2022/10/02 11:17:52;;;;;;;;;0.75;0.75;;;;;;;;4984618;28;45489;-73
2022/10/02 11:20:41;;;;;;;;;0.00;0.00;;;;;;;;5056723;28;45482;-73
2022/10/02 11:23:06;;;;;;;;;0.50;0.50;;;;;;;;5048752;28;45982;-73
2022/10/02 11:25:50;;;;;;;;;0.00;0.00;;;;;;;;5049050;28;45614;-72
2022/10/02 11:28:17;;;;;;;;;0.00;0.00;;;;;;;;5051073;28;45675;-72
2022/10/02 11:31:01;;;;;;;;;2.25;0.75;;;;;;;;5051313;28;45345;-73
2022/10/02 11:33:39;;;;;;;;;1.00;1.00;;;;;;;;5064735;28;46390;-73
2022/10/02 11:36:04;;;;;;;;;1.00;0.25;;;;;;;;5050578;28;45482;-73
2022/10/02 11:38:48;;;;;;;;;0.75;0.00;;;;;;;;5053681;28;45386;-73
2022/10/02 11:41:25;;;;;;;;;0.50;0.50;;;;;;;;5056394;28;45829;-73
2022/10/02 11:43:58;;;;;;;;;0.25;0.00;;;;;;;;5054666;28;46874;-73
2022/10/02 11:46:35;;;;;;;;;2.00;0.50;;;;;;;;5056331;28;45359;-74
2022/10/02 11:49:25;;;;;;;;;0.00;0.00;;;;;;;;5056947;28;45432;-73
2022/10/02 11:51:59;;;;;;;;;1.75;1.00;;;;;;;;5054791;28;45435;-73
2022/10/02 11:54:27;;;;;;;;;0.25;0.25;;;;;;;;5056916;28;46246;-73
2022/10/02 11:57:11;;;;;;;;;0.00;0.00;;;;;;;;5053949;28;45554;-73
2022/10/02 11:59:39;;;;;;;;;0.25;0.25;;;;;;;;5071009;28;45407;-73
2022/10/02 12:02:17;;;;;;;;;1.00;1.00;;;;;;;;5055611;28;45688;-73
2022/10/02 12:04:48;;;;;;;;;0.75;0.75;;;;;;;;5059882;28;45391;-73
2022/10/02 12:07:24;;;;;;;;;2.00;0.33;;;;;;;;5057290;28;45479;-72
2022/10/02 12:10:01;;;;;;;;;0.00;0.00;;;;;;;;5059660;28;45431;-73
2022/10/02 12:12:29;;;;;;;;;1.33;0.67;;;;;;;;5056859;28;45710;-72
2022/10/02 12:15:09;;;;;;;;;0.67;0.00;;;;;;;;5058823;28;47169;-71
2022/10/02 12:17:47;;;;;;;;;1.67;1.67;;;;;;;;5055856;28;45355;-71
2022/10/02 12:28:51;;;;;;;;;0.50;0.00;;;;;;;;5057706;28;45640;-73
2022/10/02 12:31:27;;;;;;;;;0.00;0.00;;;;;;;;5056795;28;45465;-72
2022/10/02 12:33:52;;;;;;;;;2.00;1.00;;;;;;;;5057020;28;45304;-72
2022/10/02 12:36:18;;;;;;;;;1.00;0.00;;;;;;;;5059871;28;45301;-72
2022/10/02 12:38:52;;;;;;;;;0.00;0.00;;;;;;;;5050747;28;45662;-72
2022/10/02 12:41:40;;;;;;;;;4.33;3.33;;;;;;;;5053791;28;45343;-72
2022/10/02 12:44:15;;;;;;;;;126.00;115.00;;;;;;;;5055353;28;45288;-73
2022/10/02 12:46:54;;;;;;;;;1.33;0.67;;;;;;;;5055100;28;47199;-72
2022/10/02 12:49:19;;;;;;;;;0.00;0.00;;;;;;;;5055833;28;45570;-72
2022/10/02 12:52:04;;;;;;;;;0.25;0.00;;;;;;;;5057320;28;46213;-73
2022/10/02 12:54:32;;;;;;;;;2.00;1.00;;;;;;;;5058005;28;45965;-73
2022/10/02 12:57:51;;;;;;;;;5.33;5.33;;;;;;;;5057317;28;47246;-72
2022/10/02 13:00:21;;;;;;;;;0.67;0.67;;;;;;;;5009573;28;45524;-73
2022/10/02 13:03:04;;;;;;;;;1.00;0.00;;;;;;;;5052999;28;45272;-73
2022/10/02 13:05:50;;;;;;;;;2.50;0.00;;;;;;;;5087461;27;46094;-72
2022/10/02 13:08:27;;;;;;;;;1.00;1.00;;;;;;;;5050508;28;45575;-72
2022/10/02 13:11:15;;;;;;;;;59.00;48.33;;;;;;;;5050411;28;45313;-73
2022/10/02 13:13:59;;;;;;;;;49.75;39.75;;;;;;;;5042166;28;45680;-73
2022/10/02 13:16:43;;;;;;;;;21.67;21.00;;;;;;;;5046876;28;45128;-73
2022/10/02 13:19:16;;;;;;;;;27.00;26.67;;;;;;;;5057460;28;46249;-73
2022/10/02 13:22:14;;;;;;;;;43.33;38.00;;;;;;;;5050957;28;45628;-73
2022/10/02 13:24:42;;;;;;;;;0.00;0.00;;;;;;;;5002600;28;45354;-73
2022/10/02 13:27:15;;;;;;;;;0.00;0.00;;;;;;;;5055665;28;45408;-73
2022/10/02 13:29:51;;;;;;;;;6.00;4.67;;;;;;;;5056237;28;45951;-73
2022/10/02 13:32:22;;;;;;;;;0.50;0.50;;;;;;;;5056353;28;45529;-73
2022/10/02 13:34:50;;;;;;;;;6.33;5.67;;;;;;;;5058680;28;45294;-73
2022/10/02 13:37:33;;;;;;;;;1.75;0.00;;;;;;;;5053890;28;45538;-72
2022/10/02 13:40:01;;;;;;;;;0.75;0.75;;;;;;;;5049305;28;45523;-75
2022/10/02 13:42:39;;;;;;;;;0.00;0.00;;;;;;;;5055705;28;45336;-77
2022/10/02 13:45:22;;;;;;;;;4.33;2.67;;;;;;;;5049939;28;45416;-77
2022/10/02 13:48:05;;;;;;;;;1.67;1.67;;;;;;;;5050019;28;46318;-77
2022/10/02 13:50:49;;;;;;;;;6.33;6.33;;;;;;;;5048497;28;45629;-76
2022/10/02 13:53:17;;;;;;;;;38.00;32.00;;;;;;;;5050604;28;45541;-76
2022/10/02 13:55:53;;;;;;;;;30.67;27.33;;;;;;;;5055024;28;45241;-76
2022/10/02 13:58:27;;;;;;;;;0.00;0.00;;;;;;;;5047732;28;45335;-77
2022/10/02 14:01:13;;;;;;;;;7.00;5.00;;;;;;;;5056736;28;45260;-78
2022/10/02 14:03:51;;;;;;;;;0.00;0.00;;;;;;;;5054433;28;45563;-78
2022/10/02 14:06:26;;;;;;;;;0.00;0.00;;;;;;;;5058516;28;45295;-77
2022/10/02 14:09:05;;;;;;;;;0.00;0.00;;;;;;;;5056268;28;45415;-77
2022/10/02 14:11:49;;;;;;;;;0.00;0.00;;;;;;;;5057346;28;45328;-76
2022/10/02 14:14:39;;;;;;;;;0.00;0.00;;;;;;;;5055030;28;45338;-76
2022/10/02 14:17:23;;;;;;;;;0.00;0.00;;;;;;;;5045142;28;45309;-76
2022/10/02 14:19:51;;;;;;;;;0.00;0.00;;;;;;;;5058599;28;45487;-76
2022/10/02 14:22:37;;;;;;;;;0.33;0.00;;;;;;;;5046312;28;45379;-76
2022/10/02 14:25:21;;;;;;;;;2.00;0.00;;;;;;;;5053405;28;45281;-76
2022/10/02 14:28:10;;;;;;;;;0.33;0.00;;;;;;;;5052068;28;45284;-76
2022/10/02 14:30:44;;;;;;;;;0.00;0.00;;;;;;;;5052219;28;45232;-75
2022/10/02 14:33:15;;;;;;;;;0.00;0.00;;;;;;;;5056728;28;45370;-75
2022/10/02 14:36:00;;;;;;;;;1.00;0.00;;;;;;;;5056991;28;45420;-76
2022/10/02 14:38:34;;;;;;;;;0.00;0.00;;;;;;;;5057809;28;45396;-76
2022/10/02 14:41:13;;;;;;;;;0.00;0.00;;;;;;;;5055993;28;45431;-75
2022/10/02 14:43:48;;;;;;;;;12.33;10.33;;;;;;;;5058103;28;45606;-76
2022/10/02 14:46:17;;;;;;;;;0.00;0.00;;;;;;;;5055243;28;45544;-76
2022/10/02 14:49:00;;;;;;;;;0.00;0.00;;;;;;;;5050502;28;45423;-76
2022/10/02 14:51:35;;;;;;;;;0.00;0.00;;;;;;;;5046948;28;45229;-76
2022/10/02 14:54:03;;;;;;;;;0.00;0.00;;;;;;;;5042312;28;45177;-76
2022/10/02 14:56:46;;;;;;;;;0.00;0.00;;;;;;;;5066423;28;45424;-76
2022/10/02 14:59:50;;;;;;;;;0.00;0.00;;;;;;;;5055774;28;45243;-76
2022/10/02 15:02:33;;;;;;;;;0.00;0.00;;;;;;;;5034834;28;45677;-76
2022/10/02 15:04:59;;;;;;;;;2.00;0.00;;;;;;;;5026774;28;45426;-75
2022/10/02 15:07:27;;;;;;;;;0.00;0.00;;;;;;;;5048508;28;45229;-75
2022/10/02 15:10:10;;;;;;;;;0.00;0.00;;;;;;;;5055181;28;45404;-75
2022/10/02 15:12:35;;;;;;;;;0.67;0.33;;;;;;;;5059951;28;45252;-73
2022/10/02 15:15:19;;;;;;;;;0.00;0.00;;;;;;;;5058910;28;46707;-74
2022/10/02 15:17:53;;;;;;;;;1.33;0.00;;;;;;;;5061154;28;45297;-75
2022/10/02 15:20:28;;;;;;;;;1.00;0.00;;;;;;;;5060827;28;45343;-74
2022/10/02 15:22:53;;;;;;;;;0.00;0.00;;;;;;;;5058475;28;47320;-75
2022/10/02 15:25:27;;;;;;;;;7.00;6.33;;;;;;;;5058269;28;45276;-74
2022/10/02 15:28:11;;;;;;;;;2.00;2.00;;;;;;;;5048539;28;45546;-75
2022/10/02 15:30:40;;;;;;;;;0.00;0.00;;;;;;;;5060374;28;45491;-74
2022/10/02 15:33:08;;;;;;;;;1.00;1.00;;;;;;;;5060967;28;45484;-75
2022/10/02 15:35:40;;;;;;;;;0.00;0.00;;;;;;;;5061545;28;48121;-75
2022/10/02 15:38:20;;;;;;;;;1.00;1.00;;;;;;;;5061004;28;45422;-75
2022/10/02 15:41:15;;;;;;;;;0.00;0.00;;;;;;;;5060263;28;45311;-75
2022/10/02 15:43:43;;;;;;;;;0.00;0.00;;;;;;;;5061524;28;45455;-73